Time;durP1;ratioP1;P1;durP2;ratioP2;P2;SDS_P1;SDS_P2;PMS_P1;PMS_P2;Temp;Humidity;BMP_temperature;BMP_pressure;BME280_temperature;BME280_humidity;BME280_pressure;Samples;Min_cycle;Max_cycle;Signal;HPM_P1;HPM_P2
2023/03/15 00:01:26;;;;;;;;;;;;;;;2.63;96.23;101279.00;5049145;28;20022;-64
2023/03/15 00:03:53;;;;;;;;;;;;;;;2.59;96.17;101267.75;5046269;28;20193;-62
2023/03/15 00:06:19;;;;;;;;;;;;;;;2.58;96.40;101270.19;5044041;28;20007;-62
2023/03/15 00:08:46;;;;;;;;;;;;;;;2.53;96.32;101269.00;5046402;28;20011;-62
2023/03/15 00:11:11;;;;;;;;;;;;;;;2.47;96.65;101272.00;5046921;28;20373;-62
2023/03/15 00:13:37;;;;;;;;;;;;;;;2.46;97.24;101272.78;5046796;28;19964;-61
2023/03/15 00:16:02;;;;;;;;;;;;;;;2.44;97.19;101270.94;5045752;28;20298;-61
2023/03/15 00:18:28;;;;;;;;;;;;;;;2.44;98.04;101273.47;5046872;28;19920;-61
2023/03/15 00:20:53;;;;;;;;;;;;;;;2.40;98.47;101270.72;5046239;28;19921;-62
2023/03/15 00:23:19;;;;;;;;;;;;;;;2.38;98.30;101261.25;5047161;28;19932;-61
2023/03/15 00:25:48;;;;;;;;;;;;;;;2.35;98.32;101261.03;5049725;28;19986;-61
2023/03/15 00:28:14;;;;;;;;;;;;;;;2.34;98.80;101261.81;5045423;28;20283;-61
2023/03/15 00:30:39;;;;;;;;;;;;;;;2.35;98.85;101263.56;5044928;28;19990;-61
2023/03/15 00:33:05;;;;;;;;;;;;;;;2.33;99.09;101267.69;5046219;28;19924;-61
2023/03/15 00:35:31;;;;;;;;;;;;;;;2.33;99.76;101273.63;5028302;28;19925;-61
2023/03/15 00:37:56;;;;;;;;;;;;;;;2.32;100.00;101271.00;5045818;28;19924;-62
2023/03/15 00:40:22;;;;;;;;;;;;;;;2.30;100.00;101273.41;5046204;28;19917;-63
2023/03/15 00:42:50;;;;;;;;;;;;;;;2.32;100.00;101271.00;5046831;28;20012;-61
2023/03/15 00:45:16;;;;;;;;;;;;;;;2.31;100.00;101270.13;5045216;28;19921;-61
2023/03/15 00:47:42;;;;;;;;;;;;;;;2.31;100.00;101262.50;5046237;28;19921;-61
2023/03/15 00:50:07;;;;;;;;;;;;;;;2.33;100.00;101262.59;5044037;28;19925;-62
2023/03/15 00:52:34;;;;;;;;;;;;;;;2.33;100.00;101273.63;5046520;28;20250;-62
2023/03/15 00:55:00;;;;;;;;;;;;;;;2.35;100.00;101271.19;5044763;28;20281;-61
2023/03/15 00:57:25;;;;;;;;;;;;;;;2.35;100.00;101269.53;5044075;28;19928;-61
2023/03/15 00:59:52;;;;;;;;;;;;;;;2.38;100.00;101272.28;5040772;28;20466;-61
2023/03/15 01:02:20;;;;;;;;;;;;;;;2.43;100.00;101290.38;5048866;28;19924;-61
2023/03/15 01:04:46;;;;;;;;;;;;;;;2.46;100.00;101289.69;5046285;28;20450;-61
2023/03/15 01:07:11;;;;;;;;;;;;;;;2.48;100.00;101295.72;5045062;28;19925;-61
2023/03/15 01:09:36;;;;;;;;;;;;;;;2.52;100.00;101298.59;5045724;28;19943;-61
2023/03/15 01:12:02;;;;;;;;;;;;;;;2.55;100.00;101300.44;5046963;28;19920;-61
2023/03/15 01:14:28;;;;;;;;;;;;;;;2.55;100.00;101298.81;5029954;28;19924;-62
2023/03/15 01:16:53;;;;;;;;;;;;;;;2.59;100.00;101307.50;5049867;28;20373;-62
2023/03/15 01:19:19;;;;;;;;;;;;;;;2.59;100.00;101297.34;5048228;28;19927;-64
2023/03/15 01:21:46;;;;;;;;;;;;;;;2.60;100.00;101299.97;5048912;28;20015;-62
2023/03/15 01:24:13;;;;;;;;;;;;;;;2.62;100.00;101306.03;5050365;28;20385;-62
2023/03/15 01:26:38;;;;;;;;;;;;;;;2.65;100.00;101313.84;5049399;28;19932;-62
2023/03/15 01:29:03;;;;;;;;;;;;;;;2.68;100.00;101323.34;5050216;28;19921;-62
2023/03/15 01:31:29;;;;;;;;;;;;;;;2.71;100.00;101318.47;5046871;28;19920;-62
2023/03/15 01:33:55;;;;;;;;;;;;;;;2.74;100.00;101325.41;5049686;28;20007;-62
2023/03/15 01:36:20;;;;;;;;;;;;;;;2.72;100.00;101335.44;5049646;28;20062;-61
2023/03/15 01:38:46;;;;;;;;;;;;;;;2.62;100.00;101326.34;5049075;28;20238;-62
2023/03/15 01:41:12;;;;;;;;;;;;;;;2.49;100.00;101333.94;5049106;28;19921;-61
2023/03/15 01:43:37;;;;;;;;;;;;;;;2.42;100.00;101335.13;5049140;28;20012;-62
2023/03/15 01:46:03;;;;;;;;;;;;;;;2.36;100.00;101334.72;5050965;28;20015;-61
2023/03/15 01:48:37;;;;;;;;;;;;;;;2.30;100.00;101325.81;5049594;28;19928;-61
2023/03/15 01:51:05;;;;;;;;;;;;;;;2.27;100.00;101318.00;5049496;28;19917;-61
2023/03/15 01:53:31;;;;;;;;;;;;;;;2.25;100.00;101350.03;5045914;28;19924;-61
2023/03/15 01:55:57;;;;;;;;;;;;;;;2.21;100.00;101348.91;5046522;28;20381;-62
2023/03/15 01:58:26;;;;;;;;;;;;;;;2.19;100.00;101357.22;5034294;28;19964;-62
2023/03/15 02:00:51;;;;;;;;;;;;;;;2.18;100.00;101352.88;5047002;28;19917;-62
2023/03/15 02:03:20;;;;;;;;;;;;;;;2.15;100.00;101356.97;5044594;28;20381;-62
2023/03/15 02:05:48;;;;;;;;;;;;;;;2.14;100.00;101357.75;5046820;28;20050;-62
2023/03/15 02:08:15;;;;;;;;;;;;;;;2.13;100.00;101356.00;5045567;28;19917;-62
2023/03/15 02:11:00;;;;;;;;;;;;;;;2.11;100.00;101357.53;5045324;28;20284;-62
2023/03/15 02:13:27;;;;;;;;;;;;;;;2.12;100.00;101361.88;5043332;28;20006;-59
2023/03/15 02:15:53;;;;;;;;;;;;;;;2.16;100.00;101365.47;5046022;28;20335;-61
2023/03/15 02:18:19;;;;;;;;;;;;;;;2.14;100.00;101365.38;5046089;28;19989;-61
2023/03/15 02:20:50;;;;;;;;;;;;;;;2.13;100.00;101365.28;5047856;28;20309;-61
2023/03/15 02:23:17;;;;;;;;;;;;;;;2.14;100.00;101361.97;5048455;28;20377;-61
2023/03/15 02:26:09;;;;;;;;;;;;;;;2.13;100.00;101353.47;5036913;28;20455;-61
2023/03/15 02:28:35;;;;;;;;;;;;;;;2.13;100.00;101358.53;5047063;28;20435;-61
2023/03/15 02:31:00;;;;;;;;;;;;;;;2.14;100.00;101355.22;5040093;28;19949;-61
2023/03/15 02:33:27;;;;;;;;;;;;;;;2.12;100.00;101353.34;5026147;28;19986;-61
2023/03/15 02:35:54;;;;;;;;;;;;;;;2.12;100.00;101353.34;5047717;28;20008;-61
2023/03/15 02:38:21;;;;;;;;;;;;;;;2.10;100.00;101365.91;5046287;28;19921;-61
2023/03/15 02:40:47;;;;;;;;;;;;;;;2.10;100.00;101370.13;5044877;28;20435;-61
2023/03/15 02:43:17;;;;;;;;;;;;;;;2.09;100.00;101369.25;5042732;28;19916;-61
2023/03/15 02:45:43;;;;;;;;;;;;;;;2.10;100.00;101365.91;5043446;28;19928;-62
2023/03/15 02:48:09;;;;;;;;;;;;;;;2.09;100.00;101369.25;5045283;28;20309;-61
2023/03/15 02:50:34;;;;;;;;;;;;;;;2.08;100.00;101376.75;5047743;28;19927;-62
2023/03/15 02:53:01;;;;;;;;;;;;;;;2.09;100.00;101371.78;5046275;28;19917;-63
2023/03/15 02:55:27;;;;;;;;;;;;;;;2.10;100.00;101375.19;5046681;28;19928;-62
2023/03/15 02:57:52;;;;;;;;;;;;;;;2.11;100.00;101375.28;5037580;28;20293;-62
2023/03/15 03:00:18;;;;;;;;;;;;;;;2.13;100.00;101383.91;5044312;28;19927;-61
2023/03/15 03:02:44;;;;;;;;;;;;;;;2.17;100.00;101381.56;5024278;28;19929;-62
2023/03/15 03:05:10;;;;;;;;;;;;;;;2.20;100.00;101385.22;5044913;28;20404;-61
2023/03/15 03:07:36;;;;;;;;;;;;;;;2.25;100.00;101386.44;5044730;28;19974;-61
2023/03/15 03:10:01;;;;;;;;;;;;;;;2.28;100.00;101386.63;5047280;28;19916;-61
2023/03/15 03:12:26;;;;;;;;;;;;;;;2.34;100.00;101401.41;5046613;28;20074;-61
2023/03/15 03:14:52;;;;;;;;;;;;;;;2.36;100.00;101410.88;5044244;28;19925;-61
2023/03/15 03:17:17;;;;;;;;;;;;;;;2.39;100.00;101415.28;5044684;28;19924;-61
2023/03/15 03:19:43;;;;;;;;;;;;;;;2.40;100.00;101417.94;5044408;28;19944;-61
2023/03/15 03:22:08;;;;;;;;;;;;;;;2.42;100.00;101418.03;5046316;28;19920;-61
2023/03/15 03:24:33;;;;;;;;;;;;;;;2.42;100.00;101426.50;5042266;28;19927;-61
2023/03/15 03:26:59;;;;;;;;;;;;;;;2.44;100.00;101424.09;5045695;28;20313;-61
2023/03/15 03:29:24;;;;;;;;;;;;;;;2.42;100.00;101434.13;5044308;28;20301;-61
2023/03/15 03:31:50;;;;;;;;;;;;;;;2.40;100.00;101430.63;5037551;28;19929;-61
2023/03/15 03:34:15;;;;;;;;;;;;;;;2.39;100.00;101440.66;5040636;28;20378;-61
2023/03/15 03:36:43;;;;;;;;;;;;;;;2.37;100.00;101449.84;5043691;28;20029;-61
2023/03/15 03:39:09;;;;;;;;;;;;;;;2.34;100.00;101449.63;5025577;28;20324;-63
2023/03/15 03:41:35;;;;;;;;;;;;;;;2.32;100.00;101448.63;5045405;28;19923;-61
2023/03/15 03:44:00;;;;;;;;;;;;;;;2.31;100.00;101454.50;5044268;28;19932;-61
2023/03/15 03:46:27;;;;;;;;;;;;;;;2.26;100.00;101458.34;5043852;28;20007;-61
2023/03/15 03:48:52;;;;;;;;;;;;;;;2.26;100.00;101468.50;5042026;28;19932;-62
2023/03/15 03:51:17;;;;;;;;;;;;;;;2.24;100.00;101470.03;5045657;28;20386;-61
2023/03/15 03:53:43;;;;;;;;;;;;;;;2.23;100.00;101470.81;5044681;28;19931;-61
2023/03/15 03:56:08;;;;;;;;;;;;;;;2.21;100.00;101462.22;5042452;28;20457;-61
2023/03/15 03:58:33;;;;;;;;;;;;;;;2.18;100.00;101464.53;5044779;28;19921;-61
2023/03/15 04:00:58;;;;;;;;;;;;;;;2.14;100.00;101469.38;5044817;28;20054;-61
2023/03/15 04:03:26;;;;;;;;;;;;;;;2.11;100.00;101476.78;5046031;28;19917;-61
2023/03/15 04:05:55;;;;;;;;;;;;;;;2.07;100.00;101474.81;5037221;28;19925;-61
2023/03/15 04:08:21;;;;;;;;;;;;;;;2.08;100.00;101483.28;5037784;28;19917;-61
2023/03/15 04:10:53;;;;;;;;;;;;;;;2.05;100.00;101476.31;5043293;28;19982;-62
2023/03/15 04:13:19;;;;;;;;;;;;;;;2.01;100.00;101479.44;5043466;28;19916;-61
2023/03/15 04:15:45;;;;;;;;;;;;;;;2.00;100.00;101494.53;5026125;28;20006;-61
2023/03/15 04:18:10;;;;;;;;;;;;;;;1.96;100.00;101503.59;5041724;28;20483;-62
2023/03/15 04:20:35;;;;;;;;;;;;;;;1.93;100.00;101505.88;5043669;28;19998;-61
2023/03/15 04:23:01;;;;;;;;;;;;;;;1.91;100.00;101514.16;5046156;28;19924;-61
2023/03/15 04:25:26;;;;;;;;;;;;;;;1.87;100.00;101513.03;5044606;28;20355;-61
2023/03/15 04:27:57;;;;;;;;;;;;;;;1.82;100.00;101514.34;5041041;28;19924;-62
2023/03/15 04:30:26;;;;;;;;;;;;;;;1.78;100.00;101517.47;5044113;28;21434;-62
2023/03/15 04:32:57;;;;;;;;;;;;;;;1.76;100.00;101536.72;5041862;28;19956;-61
2023/03/15 04:35:23;;;;;;;;;;;;;;;1.71;100.00;101523.72;5044155;28;19928;-61
2023/03/15 04:37:48;;;;;;;;;;;;;;;1.69;100.00;101526.91;5043324;28;19929;-61
2023/03/15 04:40:14;;;;;;;;;;;;;;;1.67;100.00;101534.41;5020192;28;20294;-61
2023/03/15 04:42:39;;;;;;;;;;;;;;;1.66;100.00;101537.72;5042558;28;20385;-61
2023/03/15 04:45:04;;;;;;;;;;;;;;;1.66;100.00;101536.84;5043768;28;19954;-61
2023/03/15 04:47:30;;;;;;;;;;;;;;;1.61;100.00;101539.91;5043216;28;19925;-61
2023/03/15 04:49:55;;;;;;;;;;;;;;;1.60;100.00;101543.22;5042592;28;19928;-61
2023/03/15 04:52:20;;;;;;;;;;;;;;;1.57;100.00;101542.09;5046929;28;20027;-61
2023/03/15 04:54:45;;;;;;;;;;;;;;;1.55;100.00;101554.66;5047328;28;19979;-61
2023/03/15 04:57:11;;;;;;;;;;;;;;;1.53;100.00;101547.72;5047472;28;19937;-60
2023/03/15 04:59:36;;;;;;;;;;;;;;;1.49;100.00;101554.19;5047258;28;20255;-61
2023/03/15 05:02:01;;;;;;;;;;;;;;;1.46;100.00;101559.03;5047638;28;19931;-61
2023/03/15 05:04:26;;;;;;;;;;;;;;;1.44;100.00;101557.16;5047328;28;19917;-61
2023/03/15 05:06:52;;;;;;;;;;;;;;;1.44;100.00;101569.81;5047284;28;20015;-62
2023/03/15 05:09:17;;;;;;;;;;;;;;;1.43;100.00;101563.88;5046125;28;20293;-61
2023/03/15 05:11:43;;;;;;;;;;;;;;;1.43;100.00;101570.59;5043041;28;20362;-61
2023/03/15 05:14:09;;;;;;;;;;;;;;;1.39;100.00;101574.53;5039619;28;20015;-62
2023/03/15 05:16:34;;;;;;;;;;;;;;;1.37;100.00;101575.19;5047942;28;19991;-62
2023/03/15 05:18:59;;;;;;;;;;;;;;;1.34;100.00;101575.84;5048855;28;20006;-62
2023/03/15 05:21:24;;;;;;;;;;;;;;;1.30;100.00;101573.84;5045192;28;19923;-62
2023/03/15 05:23:50;;;;;;;;;;;;;;;1.24;100.00;101578.44;5046398;28;20455;-62
2023/03/15 05:26:15;;;;;;;;;;;;;;;1.22;100.00;101582.53;5050189;28;19920;-61
2023/03/15 05:28:44;;;;;;;;;;;;;;;1.19;100.00;101579.75;5050120;28;19925;-61
2023/03/15 05:31:09;;;;;;;;;;;;;;;1.17;100.00;101578.75;5044706;28;20012;-60
2023/03/15 05:33:34;;;;;;;;;;;;;;;1.12;100.00;101587.63;5046905;28;20003;-61
2023/03/15 05:36:00;;;;;;;;;;;;;;;1.10;100.00;101590.06;5046366;28;19924;-62
2023/03/15 05:38:25;;;;;;;;;;;;;;;1.08;100.00;101594.09;5045391;28;19932;-62
2023/03/15 05:40:51;;;;;;;;;;;;;;;1.05;100.00;101599.81;5046328;28;19917;-62
2023/03/15 05:43:16;;;;;;;;;;;;;;;1.04;100.00;101597.19;5045329;28;19917;-62
2023/03/15 05:45:43;;;;;;;;;;;;;;;1.04;100.00;101598.06;5051730;28;20366;-62
2023/03/15 05:48:09;;;;;;;;;;;;;;;1.07;100.00;101620.19;5039737;28;19978;-66
2023/03/15 05:50:34;;;;;;;;;;;;;;;1.06;100.00;101611.72;5047654;28;19924;-62
2023/03/15 05:52:59;;;;;;;;;;;;;;;1.08;100.00;101612.72;5047569;28;19921;-63
2023/03/15 05:55:24;;;;;;;;;;;;;;;1.08;100.00;101612.72;5049323;28;19924;-62
2023/03/15 05:57:50;;;;;;;;;;;;;;;1.08;100.00;101620.31;5049417;28;19935;-62
2023/03/15 06:00:15;;;;;;;;;;;;;;;1.07;100.00;101618.53;5045800;28;19964;-62
2023/03/15 06:02:42;;;;;;;;;;;;;;;1.05;100.00;101614.13;5044252;28;20359;-63
2023/03/15 06:05:08;;;;;;;;;;;;;;;1.05;100.00;101625.16;5050340;28;20344;-65
2023/03/15 06:07:33;;;;;;;;;;;;;;;1.06;100.00;101631.09;5048942;28;19921;-62
2023/03/15 06:09:58;;;;;;;;;;;;;;;1.05;100.00;101632.75;5046759;28;19921;-62
2023/03/15 06:12:23;;;;;;;;;;;;;;;1.06;100.00;101636.16;5047694;28;19939;-62
2023/03/15 06:14:49;;;;;;;;;;;;;;;1.11;100.00;101644.13;5048356;28;19928;-61
2023/03/15 06:17:14;;;;;;;;;;;;;;;1.11;100.00;101645.00;5046691;28;19929;-61
2023/03/15 06:19:39;;;;;;;;;;;;;;;1.12;100.00;101651.84;5048398;28;20098;-62
2023/03/15 06:22:04;;;;;;;;;;;;;;;1.14;100.00;101647.78;5040833;28;20407;-59
2023/03/15 06:24:30;;;;;;;;;;;;;;;1.16;100.00;101655.50;5044961;28;19921;-61
2023/03/15 06:26:55;;;;;;;;;;;;;;;1.17;100.00;101665.75;5048710;28;20327;-62
2023/03/15 06:29:21;;;;;;;;;;;;;;;1.22;100.00;101664.47;5046848;28;19956;-62
2023/03/15 06:31:48;;;;;;;;;;;;;;;1.28;100.00;101669.13;5049184;28;19916;-62
2023/03/15 06:34:13;;;;;;;;;;;;;;;1.32;100.00;101677.06;5045471;28;19921;-62
2023/03/15 06:36:41;;;;;;;;;;;;;;;1.40;100.00;101682.75;5048676;28;20019;-62
2023/03/15 06:39:06;;;;;;;;;;;;;;;1.47;100.00;101689.19;5046761;28;19920;-62
2023/03/15 06:41:31;;;;;;;;;;;;;;;1.53;100.00;101689.66;5048797;28;19979;-63
2023/03/15 06:43:56;;;;;;;;;;;;;;;1.57;100.00;101695.06;5045893;28;19916;-62
2023/03/15 06:46:22;;;;;;;;;;;;;;;1.64;100.00;101700.59;5048151;28;19923;-62
2023/03/15 06:48:47;;;;;;;;;;;;;;;1.70;100.00;101703.59;5048028;28;19935;-62
2023/03/15 06:51:12;;;;;;;;;;;;;;;1.76;100.00;101710.06;5047677;28;19917;-61
2023/03/15 06:53:37;;;;;;;;;;;;;;;1.80;100.00;101717.13;5047316;28;20334;-62
2023/03/15 06:56:03;;;;;;;;;;;;;;;1.85;100.00;101725.97;5039743;28;19933;-61
2023/03/15 06:58:28;;;;;;;;;;;;;;;1.90;100.00;101728.84;5045054;28;19925;-62
2023/03/15 07:00:54;;;;;;;;;;;;;;;1.92;100.00;101727.31;5048400;28;20023;-67
2023/03/15 07:03:21;;;;;;;;;;;;;;;1.97;100.00;101731.09;5045914;28;20448;-62
2023/03/15 07:05:48;;;;;;;;;;;;;;;2.06;100.00;101738.50;5030283;28;19925;-62
2023/03/15 07:08:13;;;;;;;;;;;;;;;2.14;100.00;101740.88;5029056;28;20036;-62
2023/03/15 07:10:38;;;;;;;;;;;;;;;2.24;100.00;101739.88;5045402;28;20011;-62
2023/03/15 07:13:05;;;;;;;;;;;;;;;2.34;100.00;101741.47;5046559;28;19936;-62
2023/03/15 07:15:31;;;;;;;;;;;;;;;2.46;100.00;101751.66;5045943;28;19921;-62
2023/03/15 07:17:56;;;;;;;;;;;;;;;2.58;100.00;101753.44;5046181;28;19921;-62
2023/03/15 07:20:21;;;;;;;;;;;;;;;2.71;100.00;101761.97;5045985;28;19928;-62
2023/03/15 07:22:46;;;;;;;;;;;;;;;2.77;100.00;101763.31;5046877;28;20041;-62
2023/03/15 07:25:12;;;;;;;;;;;;;;;2.84;100.00;101762.09;5046365;28;19924;-62
2023/03/15 07:27:37;;;;;;;;;;;;;;;2.87;100.00;101760.69;5047147;28;19974;-62
2023/03/15 07:30:03;;;;;;;;;;;;;;;2.90;100.00;101770.16;5041885;28;20321;-62
2023/03/15 07:32:29;;;;;;;;;;;;;;;2.97;100.00;101777.47;5045508;28;20271;-62
2023/03/15 07:34:57;;;;;;;;;;;;;;;3.06;100.00;101773.06;5045207;28;19924;-62
2023/03/15 07:37:22;;;;;;;;;;;;;;;3.14;100.00;101783.78;5045556;28;20033;-63
2023/03/15 07:39:47;;;;;;;;;;;;;;;3.19;100.00;101780.78;5046299;28;20538;-62
2023/03/15 07:42:12;;;;;;;;;;;;;;;3.35;100.00;101792.97;5047282;28;19917;-62
2023/03/15 07:44:38;;;;;;;;;;;;;;;3.43;100.00;101798.59;5043949;28;20424;-62
2023/03/15 07:47:03;;;;;;;;;;;;;;;3.49;100.00;101793.94;5046085;28;20015;-62
2023/03/15 07:49:29;;;;;;;;;;;;;;;3.55;100.00;101798.56;5044494;28;19983;-62
2023/03/15 07:51:55;;;;;;;;;;;;;;;3.56;100.00;101801.22;5047630;28;20015;-62
2023/03/15 07:54:20;;;;;;;;;;;;;;;3.57;100.00;101800.44;5043650;28;20045;-62
2023/03/15 07:56:45;;;;;;;;;;;;;;;3.61;100.00;101810.06;5046444;28;19925;-61
2023/03/15 07:59:11;;;;;;;;;;;;;;;3.65;100.00;101809.53;5047247;28;19913;-63
2023/03/15 08:01:36;;;;;;;;;;;;;;;3.69;100.00;101814.03;5047967;28;19920;-63
2023/03/15 08:04:01;;;;;;;;;;;;;;;3.74;100.00;101817.78;5042483;28;20282;-63
2023/03/15 08:06:27;;;;;;;;;;;;;;;3.82;100.00;101825.94;5042835;28;19967;-62
2023/03/15 08:08:52;;;;;;;;;;;;;;;3.89;100.00;101827.28;5047305;28;20370;-62
2023/03/15 08:11:17;;;;;;;;;;;;;;;3.97;100.00;101841.44;5046353;28;19921;-62
2023/03/15 08:13:42;;;;;;;;;;;;;;;4.05;100.00;101847.91;5047307;28;20012;-64
2023/03/15 08:16:08;;;;;;;;;;;;;;;4.19;100.00;101844.69;5045532;28;20312;-62
2023/03/15 08:18:33;;;;;;;;;;;;;;;4.37;100.00;101850.19;5027821;28;19932;-61
2023/03/15 08:20:58;;;;;;;;;;;;;;;6.54;97.69;101856.53;5047190;28;19925;-61
2023/03/15 08:23:23;;;;;;;;;;;;;;;9.47;87.52;101850.25;5044103;28;20003;-62
2023/03/15 08:25:49;;;;;;;;;;;;;;;12.30;71.92;101868.38;5046079;28;19983;-62
2023/03/15 08:28:14;;;;;;;;;;;;;;;14.57;66.06;101864.63;5044624;28;19966;-62
2023/03/15 08:30:40;;;;;;;;;;;;;;;16.74;52.17;101861.03;5046917;28;20011;-60
2023/03/15 08:33:06;;;;;;;;;;;;;;;18.49;52.26;101865.44;5046938;28;20365;-60
2023/03/15 08:35:33;;;;;;;;;;;;;;;19.46;46.67;101856.84;5045925;28;19921;-60
2023/03/15 08:37:58;;;;;;;;;;;;;;;20.54;40.03;101857.44;5040491;28;19921;-60
2023/03/15 08:40:23;;;;;;;;;;;;;;;21.33;40.57;101854.06;5044053;28;19929;-61
2023/03/15 08:42:49;;;;;;;;;;;;;;;22.33;35.85;101854.72;5046353;28;19984;-60
2023/03/15 08:45:15;;;;;;;;;;;;;;;23.12;35.19;101863.88;5044728;28;19928;-60
2023/03/15 08:47:40;;;;;;;;;;;;;;;24.04;31.16;101869.09;5046818;28;19951;-61
2023/03/15 08:50:10;;;;;;;;;;;;;;;24.70;31.56;101865.63;5045631;28;19921;-61
2023/03/15 08:52:36;;;;;;;;;;;;;;;25.16;29.39;101871.97;5045558;28;20273;-61
2023/03/15 08:55:03;;;;;;;;;;;;;;;25.55;29.52;101863.38;5046905;28;19924;-61
2023/03/15 08:57:31;;;;;;;;;;;;;;;25.70;28.57;101867.47;5045325;28;19928;-61
2023/03/15 08:59:57;;;;;;;;;;;;;;;25.67;28.58;101865.78;5046414;28;20015;-61
2023/03/15 09:02:22;;;;;;;;;;;;;;;25.72;27.08;101865.66;5046117;28;20389;-61
2023/03/15 09:04:47;;;;;;;;;;;;;;;24.61;27.97;101861.34;5046200;28;20027;-61
2023/03/15 09:07:14;;;;;;;;;;;;;;;22.67;30.54;101872.88;5045115;28;19928;-61
2023/03/15 09:09:39;;;;;;;;;;;;;;;21.08;32.56;101871.47;5046986;28;20301;-58
2023/03/15 09:12:04;;;;;;;;;;;;;;;19.77;34.87;101877.06;5035939;28;19921;-59
2023/03/15 09:14:30;;;;;;;;;;;;;;;18.70;35.54;101878.75;5043804;28;20369;-60
2023/03/15 09:16:55;;;;;;;;;;;;;;;17.87;37.35;101874.22;5045884;28;19929;-60
2023/03/15 09:19:20;;;;;;;;;;;;;;;17.42;37.93;101874.38;5045245;28;19924;-61
2023/03/15 09:21:46;;;;;;;;;;;;;;;17.20;37.65;101873.13;5046831;28;19947;-59
2023/03/15 09:24:11;;;;;;;;;;;;;;;16.96;39.14;101867.53;5028555;28;20373;-60
2023/03/15 09:26:36;;;;;;;;;;;;;;;16.95;39.71;101871.84;5044786;28;19920;-59
2023/03/15 09:29:02;;;;;;;;;;;;;;;16.98;40.25;101871.00;5044988;28;20304;-60
2023/03/15 09:31:27;;;;;;;;;;;;;;;17.04;38.26;101868.50;5044490;28;20066;-60
2023/03/15 09:33:53;;;;;;;;;;;;;;;17.18;37.31;101866.19;5046143;28;19925;-60
2023/03/15 09:36:18;;;;;;;;;;;;;;;17.43;38.80;101868.31;5047842;28;19963;-60
2023/03/15 09:38:43;;;;;;;;;;;;;;;17.90;38.58;101873.41;5048314;28;19940;-60
2023/03/15 09:41:18;;;;;;;;;;;;;;;18.64;36.75;101873.44;5049792;28;20011;-60
2023/03/15 09:43:46;;;;;;;;;;;;;;;19.43;36.34;101877.69;5032844;28;19913;-60
2023/03/15 09:46:36;;;;;;;;;;;;;;;19.70;34.71;101879.66;5042919;28;19916;-60
2023/03/15 09:49:13;;;;;;;;;;;;;;;19.38;36.00;101872.44;5047730;28;19928;-60
2023/03/15 09:51:47;;;;;;;;;;;;;;;20.01;34.87;101883.31;5047270;28;19917;-62
2023/03/15 09:54:22;;;;;;;;;;;;;;;21.61;32.52;101888.09;5049593;28;19920;-60
2023/03/15 09:57:05;;;;;;;;;;;;;;;23.20;30.28;101882.16;5045978;28;19932;-60
2023/03/15 09:59:37;;;;;;;;;;;;;;;24.77;27.22;101874.31;5045840;28;20031;-60
2023/03/15 10:02:12;;;;;;;;;;;;;;;26.38;25.37;101882.81;5048415;28;19913;-60
2023/03/15 10:04:39;;;;;;;;;;;;;;;27.59;24.65;101882.63;5049188;28;19970;-59
2023/03/15 10:07:06;;;;;;;;;;;;;;;28.83;22.16;101878.13;5049234;28;20309;-59
2023/03/15 10:09:32;;;;;;;;;;;;;;;29.38;21.86;101880.75;5047193;28;19943;-60
2023/03/15 10:12:03;;;;;;;;;;;;;;;29.55;21.34;101872.25;5049224;28;19925;-60
2023/03/15 10:14:54;;;;;;;;;;;;;;;26.89;22.61;101880.81;5048580;28;19979;-60
2023/03/15 10:17:23;;;;;;;;;;;;;;;24.32;24.87;101895.03;5025555;28;20491;-59
2023/03/15 10:19:50;;;;;;;;;;;;;;;25.90;24.91;101880.28;5041696;28;20527;-60
2023/03/15 10:22:18;;;;;;;;;;;;;;;27.94;22.59;101879.91;5027296;28;20031;-60
2023/03/15 10:24:53;;;;;;;;;;;;;;;28.12;21.20;101885.59;5047391;28;19963;-60
2023/03/15 10:27:20;;;;;;;;;;;;;;;28.02;22.21;101879.69;5047241;28;20284;-59
2023/03/15 10:29:47;;;;;;;;;;;;;;;29.00;21.09;101888.22;5047978;28;19925;-60
2023/03/15 10:32:17;;;;;;;;;;;;;;;29.96;18.87;101884.00;5047249;28;19951;-60
2023/03/15 10:34:46;;;;;;;;;;;;;;;30.92;20.65;101885.63;5044629;28;19921;-59
2023/03/15 10:37:11;;;;;;;;;;;;;;;31.95;19.15;101881.25;5048391;28;19943;-60
2023/03/15 10:39:36;;;;;;;;;;;;;;;31.15;17.92;101876.69;5048489;28;19920;-60
2023/03/15 10:42:02;;;;;;;;;;;;;;;29.19;20.46;101891.13;5045299;28;20020;-59
2023/03/15 10:44:28;;;;;;;;;;;;;;;29.70;19.02;101887.59;5042902;28;19924;-59
2023/03/15 10:47:02;;;;;;;;;;;;;;;30.69;18.46;101886.53;5040958;28;19964;-59
2023/03/15 10:49:34;;;;;;;;;;;;;;;31.67;16.98;101893.09;5039138;28;20702;-59
2023/03/15 10:51:59;;;;;;;;;;;;;;;32.26;17.66;101900.19;5044754;28;20335;-60
2023/03/15 10:54:25;;;;;;;;;;;;;;;33.01;17.03;101899.31;5036440;28;19929;-60
2023/03/15 10:56:58;;;;;;;;;;;;;;;32.47;16.64;101898.34;5040470;28;20442;-60
2023/03/15 10:59:24;;;;;;;;;;;;;;;31.13;17.54;101902.47;5041334;28;19917;-62
2023/03/15 11:01:50;;;;;;;;;;;;;;;28.12;18.09;101910.25;5042397;28;20468;-60
2023/03/15 11:04:18;;;;;;;;;;;;;;;24.18;21.62;101915.34;5043672;28;19927;-60
2023/03/15 11:07:12;;;;;;;;;;;;;;;21.14;24.86;101915.06;5025009;28;20895;-60
2023/03/15 11:09:39;;;;;;;;;;;;;;;18.62;27.98;101919.44;5039629;28;19916;-60
2023/03/15 11:12:06;;;;;;;;;;;;;;;16.86;29.03;101918.41;5044178;28;19936;-60
2023/03/15 11:14:35;;;;;;;;;;;;;;;15.78;31.94;101924.75;5042812;28;19917;-60
2023/03/15 11:17:02;;;;;;;;;;;;;;;14.59;33.09;101935.41;5042895;28;19982;-60
2023/03/15 11:19:30;;;;;;;;;;;;;;;13.68;33.50;101942.09;5042086;28;19953;-60
2023/03/15 11:21:57;;;;;;;;;;;;;;;12.89;36.38;101942.81;5044100;28;20332;-60
2023/03/15 11:24:22;;;;;;;;;;;;;;;12.41;39.05;101943.59;5041990;28;20018;-60
2023/03/15 11:26:52;;;;;;;;;;;;;;;12.13;40.19;101942.50;5045256;28;19928;-59
2023/03/15 11:29:17;;;;;;;;;;;;;;;12.02;40.67;101954.13;5032279;28;20344;-59
2023/03/15 11:31:43;;;;;;;;;;;;;;;11.84;40.51;101940.53;5045638;28;19917;-60
2023/03/15 11:34:14;;;;;;;;;;;;;;;11.66;42.45;101944.06;5042098;28;20015;-58
2023/03/15 11:36:42;;;;;;;;;;;;;;;11.60;42.11;101948.97;5041825;28;19925;-57
2023/03/15 11:39:12;;;;;;;;;;;;;;;11.62;43.10;101938.72;5042361;28;19963;-57
2023/03/15 11:41:47;;;;;;;;;;;;;;;11.55;43.85;101941.06;5041573;28;19951;-56
2023/03/15 11:44:15;;;;;;;;;;;;;;;11.49;43.44;101942.50;5042944;28;19923;-57
2023/03/15 11:46:42;;;;;;;;;;;;;;;11.47;43.10;101934.72;5042961;28;19924;-57
2023/03/15 11:49:26;;;;;;;;;;;;;;;11.46;43.54;101932.06;5042897;28;19935;-57
2023/03/15 11:51:53;;;;;;;;;;;;;;;11.48;43.30;101933.88;5040495;28;19925;-57
2023/03/15 11:54:20;;;;;;;;;;;;;;;11.58;44.72;101929.09;5042024;28;20409;-57
2023/03/15 11:56:47;;;;;;;;;;;;;;;11.63;41.96;101928.47;5042361;28;20049;-57
2023/03/15 11:59:27;;;;;;;;;;;;;;;11.61;43.55;101930.13;5040626;28;19917;-57
2023/03/15 12:02:08;;;;;;;;;;;;;;;11.63;42.46;101923.31;5031551;28;19931;-57
2023/03/15 12:04:33;;;;;;;;;;;;;;;11.51;41.94;101918.53;5041649;28;19917;-57
2023/03/15 12:07:25;;;;;;;;;;;;;;;11.45;40.43;101922.56;5041279;28;20366;-57
2023/03/15 12:09:54;;;;;;;;;;;;;;;11.45;42.09;101925.16;5011084;28;20538;-57
2023/03/15 12:12:19;;;;;;;;;;;;;;;11.40;42.56;101924.06;5041911;28;19927;-57
2023/03/15 12:14:44;;;;;;;;;;;;;;;11.43;42.25;101926.78;5041003;28;20381;-57
2023/03/15 12:17:28;;;;;;;;;;;;;;;11.45;42.03;101926.03;5040096;28;19925;-57
2023/03/15 12:20:08;;;;;;;;;;;;;;;11.59;42.44;101930.84;5041601;28;20397;-58
2023/03/15 12:22:34;;;;;;;;;;;;;;;11.70;42.58;101924.44;5042664;28;19916;-58
2023/03/15 12:25:07;;;;;;;;;;;;;;;11.83;41.56;101921.59;5041095;28;19925;-58
2023/03/15 12:27:34;;;;;;;;;;;;;;;12.11;40.70;101922.66;5040107;28;19928;-58
2023/03/15 12:30:00;;;;;;;;;;;;;;;12.29;41.55;101924.25;5042900;28;20370;-58
2023/03/15 12:32:27;;;;;;;;;;;;;;;12.58;39.13;101927.03;5041851;28;19959;-58
2023/03/15 12:34:57;;;;;;;;;;;;;;;12.66;37.44;101927.31;5044565;28;19917;-58
2023/03/15 12:37:27;;;;;;;;;;;;;;;12.38;38.84;101923.72;5030289;28;19921;-58